Flight Track Log - Related Links

Times and Time Zones

All times are in EDT time to prevent confusion due to time zone crossing. See the N775D flight status page for this flight to view local times or setup timezone preferences in your user account.


Time Position Orientation Groundspeed Altitude Reporting Facility
EDT Latitude Longitude Course Direction KTS MPH feet Rate Location/Type
Thu 04:35:49 PM 18.4833 -68.5833 71° East 150 173 10,700  Level San Juan Center
Thu 04:36:49 PM 18.5000 -68.5500 62° Northeast 150 173 11,800 1,050 Climbing San Juan Center
Thu 04:37:49 PM 18.5333 -68.5167 43° Northeast 160 184 12,800 942 Climbing San Juan Center
Thu 04:38:50 PM 18.5500 -68.4667 71° East 160 184 13,700 942 Climbing San Juan Center
Thu 04:39:00 PM 18.4553 -68.3398 89° East  Level Estimated
Thu 04:39:50 PM 18.5833 -68.4333 43° Northeast 170 196 14,700  Level San Juan Center
Thu 04:40:00 PM 18.4557 -68.2804 90° East  Level Estimated
Thu 04:40:50 PM 18.6000 -68.3833 71° East 180 207 15,000  Level San Juan Center
Thu 04:41:51 PM 18.6333 -68.3333 55° Northeast 210 242 15,000  Level San Juan Center
Thu 04:42:51 PM 18.6667 -68.2667 62° Northeast 220 253 15,000  Level San Juan Center
Thu 04:43:51 PM 18.7000 -68.2167 55° Northeast 220 253 15,000  Level San Juan Center
Thu 04:44:51 PM 18.7333 -68.1667 55° Northeast 220 253 15,000  Level San Juan Center
Thu 04:45:52 PM 18.7667 -68.1000 62° Northeast 240 276 15,000  Level San Juan Center
Thu 04:46:52 PM 18.8000 -68.0500 55° Northeast 230 265 15,000  Level San Juan Center
Thu 04:47:52 PM 18.8167 -68.0000 71° East 230 265 15,000  Level San Juan Center
Thu 04:48:53 PM 18.8167 -67.9333 90° East 230 265 15,000  Level San Juan Center
Thu 04:49:53 PM 18.7833 -67.8500 113° Southeast 230 265 15,000  Level San Juan Center
Thu 04:50:53 PM 18.8000 -67.8000 71° East 230 265 15,000  Level San Juan Center
Thu 04:51:54 PM 18.7833 -67.7167 102° East 240 276 15,000  Level San Juan Center
Thu 04:52:54 PM 18.7667 -67.6500 105° East 240 276 15,000  Level San Juan Center
Thu 04:53:54 PM 18.7500 -67.6000 109° East 220 253 15,000  Level San Juan Center
Thu 04:54:55 PM 18.7333 -67.5167 102° East 240 276 15,000 50 Level San Juan Center
Thu 04:55:55 PM 18.7333 -67.4500 90° East 230 265 15,100 50 Climbing San Juan Center
Thu 04:56:55 PM 18.7000 -67.3833 118° Southeast 240 276 15,100 -50 Level San Juan Center
Thu 04:57:56 PM 18.6833 -67.3167 105° East 230 265 15,000 -694 Descending San Juan Center
Thu 04:58:56 PM 18.6833 -67.2500 90° East 260 299 13,700 -1,400 Descending San Juan Center
Thu 04:59:56 PM 18.6667 -67.1667 102° East 250 288 12,200 -1,500 Descending San Juan Center
Thu 05:00:56 PM 18.6500 -67.1000 105° East 250 288 10,700 -1,550 Descending San Juan Center
Thu 05:01:56 PM 18.6333 -67.0333 105° East 230 265 9,100 -1,636 Descending San Juan Center
Thu 05:02:57 PM 18.6167 -66.9833 109° East 210 242 7,400 -1,041 Descending San Juan Center
Thu 05:03:57 PM 18.6167 -66.9167 90° East 200 230 7,000 -200 Descending San Juan Center
Thu 05:04:57 PM 18.6000 -66.8667 109° East 210 242 7,000  Level San Juan Center
Thu 05:05:58 PM 18.6000 -66.8000 90° East 210 242 7,000  Level San Juan Center
Thu 05:06:58 PM 18.5833 -66.7500 109° East 210 242 7,000  Level San Juan Center
Thu 05:07:58 PM 18.5667 -66.6833 105° East 210 242 7,000  Level San Juan Center
Thu 05:08:59 PM 18.5500 -66.6167 105° East 210 242 7,000  Level San Juan Center
Thu 05:09:59 PM 18.5333 -66.5500 105° East 220 253 7,000  Level San Juan Center
Thu 05:10:59 PM 18.5333 -66.4833 90° East 220 253 7,000 -397 Level San Juan Center
Thu 05:12:00 PM 18.5167 -66.4333 109° East 210 242 6,200 -1,190 Descending San Juan Center
Thu 05:13:00 PM 18.5000 -66.3667 105° East 210 242 4,600 -1,500 Descending San Juan Center
Thu 05:14:00 PM 18.4833 -66.3167 109° East 210 242 3,200 -793 Descending San Juan Center
Thu 05:15:01 PM 18.4667 -66.2667 109° East 170 196 3,000 -397 Descending San Juan Center
Thu 05:16:01 PM 18.4500 -66.2167 109° East 180 207 2,400 -750 Descending San Juan Center
Thu 05:17:01 PM 18.4500 -66.1500 90° East 180 207 1,500 -900 Descending San Juan Center
Thu 05:20:00 PM 18.4568 -66.0981 90° East  Level Estimated

Login

Don't have an account? Register now (free) for customized features, flight alerts, and more!